This is the latest recevied weather packets stored in our database for station/object HS5HBQ-1. If no packets are shown the sender has not sent any weather packets the latest 10 day(s).
| Time | Temp. | Humidity | Pressure | Rain* | Wind** | Luminosity | Snow |
|---|---|---|---|---|---|---|---|
| 1777783195 | 34.44° C | 35% | 974 hPa | - | - | 0 W/m² | - |
| 1777782571 | 34.44° C | 36% | 975 hPa | - | - | 0 W/m² | - |
| 1777781943 | 33.33° C | 37% | 975 hPa | - | - | 0 W/m² | - |
| 1777781664 | 34.44° C | 36% | 975 hPa | - | - | 0 W/m² | - |
| 1777781326 | 34.44° C | 35% | 975 hPa | - | - | 0 W/m² | - |
| 1777780702 | 34.44° C | 36% | 975 hPa | - | - | 0 W/m² | - |
| 1777780078 | 35° C | 35% | 975 hPa | - | - | 0 W/m² | - |
| 1777779454 | 35° C | 35% | 975 hPa | - | - | 0 W/m² | - |
| 1777778830 | 33.89° C | 38% | 975 hPa | - | - | 0 W/m² | - |
| 1777778205 | 33.89° C | 38% | 975 hPa | - | - | 0 W/m² | - |
| 1777777581 | 33.89° C | 38% | 975 hPa | - | - | 0 W/m² | - |
| 1777776957 | 33.89° C | 38% | 975 hPa | - | - | 0 W/m² | - |
| 1777776333 | 33.89° C | 38% | 975 hPa | - | - | 0 W/m² | - |
| 1777775708 | 33.33° C | 40% | 975 hPa | - | - | 0 W/m² | - |
| 1777775084 | 33.89° C | 40% | 975 hPa | - | - | 0 W/m² | - |
| 1777774461 | 33.33° C | 42% | 976 hPa | - | - | 0 W/m² | - |
| 1777773836 | 32.78° C | 44% | 975 hPa | - | - | 0 W/m² | - |
| 1777773211 | 32.78° C | 41% | 976 hPa | - | - | 0 W/m² | - |
| 1777772587 | 32.78° C | 42% | 975 hPa | - | - | 0 W/m² | - |
| 1777771965 | 32.22° C | 43% | 975 hPa | - | - | 0 W/m² | - |
| 1777771337 | 32.78° C | 42% | 975 hPa | - | - | 0 W/m² | - |
| 1777770713 | 32.78° C | 42% | 975 hPa | - | - | 0 W/m² | - |
| 1777770088 | 32.78° C | 41% | 975 hPa | - | - | 0 W/m² | - |
| 1777769464 | 32.78° C | 41% | 975 hPa | - | - | 0 W/m² | - |
| 1777768840 | 32.22° C | 42% | 975 hPa | - | - | 0 W/m² | - |
* Rain since midnight (hover to see other rain measurements)
** Current wind speed in m/s (hover to see current wind gust speed)